Terminal Aerodrome Forecast
Issued by NWS

Home | Current Version | Previous Version | Text Only | Print | Product List | Glossary On
Versions: 1 2 3 4 5 6 7 8 9 10 11 12 13 14 15 16 17 18 19 20 21 22 23 24 25
075
FTUS44 KLZK 230520
TAFLIT
TAF
KLIT 230520Z 2306/2406 19004KT P6SM FEW250
     FM230800 17003KT 3SM BR SKC
      TEMPO 2310/2314 1SM BR SCT003 BKN006
     FM231600 17010KT P6SM FEW250
     FM231800 17011G18KT P6SM FEW250
     FM240000 16009KT P6SM SCT250=

USA.gov is the U.S. government's official web portal to all federal, state and local government web resources and services.